Quinebaug River @ Quinebaug, Ct

Quinebaug River at Quinebaug
 Total Drainage Area: 155 sq. miles 
 Drainage Area Controlled by Corps Dams: ?? sq. miles (??%) 
 Warning Flow/Stage: 2,570 cfs / 6.0 feet 
 Flood Flow/Stage: ?? cfs / ?? feet 
Date Time
(Eastern)
Stage
(ft)
Flow
(cfs)
CSM
(cfs / sq. mi.)
Jul-21 04:00 pm 2.48 69 .4
Jul-21 03:00 pm 2.48 69 .4
Jul-21 02:00 pm 2.48 69 .4
Jul-21 01:00 pm 2.49 71 .5
Jul-21 12:00 pm 2.49 71 .5
Jul-21 11:00 am 2.48 69 .4
Jul-21 10:00 am 2.48 69 .4
Jul-21 09:00 am 2.49 71 .5
Jul-21 08:00 am 2.49 71 .5
Jul-21 07:00 am 2.49 71 .5
Jul-21 06:00 am 2.49 71 .5
Jul-21 05:00 am 2.49 71 .5
Jul-21 04:00 am 2.49 71 .5
Jul-21 03:00 am 2.50 73 .5
Jul-21 02:00 am 2.51 75 .5
Jul-21 01:00 am 2.54 81 .5
Jul-21 12:00 am 2.59 93 .6
Jul-20 11:00 pm 2.63 103 .7
Jul-20 10:00 pm 2.52 77 .5
Jul-20 09:00 pm 2.48 69 .4
Jul-20 08:00 pm 2.49 71 .5
Jul-20 07:00 pm 2.49 71 .5
Jul-20 06:00 pm 2.48 69 .4
Jul-20 05:00 pm 2.48 69 .4
Jul-20 04:00 pm 2.49 71 .5
Report Generated July 21, 2024 04:38 pm